Strona główna
METAR-TAF:

METAR-TAF

Lotnisko :

Tweed New Haven Regional Airport

New Haven, Connecticut, Stany Zjednoczone

Szerokość geograficzna: 41-15-50N, Długość geograficzna: 072-53-14W, wysokość: 4 m

Aktualna obserwacja pogody

Raport powstał 1 godzina i 10 minut temu, godzina 07:53 UTC
Wiatr 9 kt od zachód w porywach dochodzący do 18 kt, zmienny między południowo-południowy zachód i północny zachód
Temperatura 7°C
Wilgotność 66%
Ciśnienie 997 hPa
Widzialność: 16.1 km
Zachmurzenie całkowite na wysokości 10000 ft

METAR: KHVN 150753Z AUTO 27009G18KT 210V310 10SM OVC100 07/01 A2944 RMK AO2 SLP967 T00720006

czas: 04:03 (09:03 UTC)


TAF: brakujący

Obserwacja i prognoza pogody dla ponad 4000 lotnisk (raport METAR i TAF).

Dostępne stacje oznaczono żółtymi i czerwonymi punktami na mapie.

Najedź kursorem aby zobaczyć nazwę stacji.

Kliknij aby zobaczyć obserwacje i prognozy pogody.

Aby zmienić mapę: kliknij na zielony przycisk z czarnym krzyżykiem, aby powiększyć; na zielony przycisk z myślnikiem, aby pomniejszyć; na zielone strzałki, aby przejść do map sąsiednich.


METAR-TAF: